createdAt,value
2018-05-16T00:00:23.283Z,0
2018-05-16T00:01:03.866Z,0
2018-05-16T00:01:44.834Z,0
2018-05-16T00:02:25.411Z,0
2018-05-16T00:03:06.003Z,0
2018-05-16T00:03:46.536Z,0
2018-05-16T00:04:27.100Z,0
2018-05-16T00:05:07.711Z,0
2018-05-16T00:05:48.274Z,0
2018-05-16T00:06:28.845Z,0
2018-05-16T00:07:09.417Z,0
2018-05-16T00:07:49.996Z,0
2018-05-16T00:08:30.533Z,0
2018-05-16T00:09:11.095Z,0
2018-05-16T00:09:51.683Z,0
2018-05-16T00:10:32.256Z,0
2018-05-16T00:11:12.814Z,0
2018-05-16T00:11:53.383Z,0
2018-05-16T00:12:33.965Z,0
2018-05-16T00:13:14.522Z,0
2018-05-16T00:13:55.098Z,0
2018-05-16T00:14:35.707Z,0
2018-05-16T00:15:16.280Z,0
2018-05-16T00:15:56.846Z,0
2018-05-16T00:16:37.415Z,0
2018-05-16T00:17:17.985Z,0
2018-05-16T00:17:58.553Z,0
2018-05-16T00:18:39.149Z,0
2018-05-16T00:19:19.723Z,0
2018-05-16T00:20:00.270Z,0
2018-05-16T00:20:40.849Z,0
2018-05-16T00:21:21.412Z,0
2018-05-16T00:22:01.984Z,0
2018-05-16T00:22:42.561Z,0
2018-05-16T00:23:23.137Z,0
2018-05-16T00:24:03.696Z,0
2018-05-16T00:24:44.241Z,0
2018-05-16T00:25:24.816Z,0
2018-05-16T00:26:05.384Z,0
2018-05-16T00:26:45.981Z,0
2018-05-16T00:27:26.537Z,0
2018-05-16T00:28:07.097Z,0
2018-05-16T00:28:47.707Z,0
2018-05-16T00:29:28.190Z,0
2018-05-16T00:30:08.755Z,0
2018-05-16T00:30:49.329Z,0
2018-05-16T00:31:29.885Z,0
2018-05-16T00:32:10.494Z,0
2018-05-16T00:32:51.091Z,0
2018-05-16T00:33:31.604Z,0
2018-05-16T00:34:12.151Z,0
2018-05-16T00:34:52.719Z,0
2018-05-16T00:35:33.287Z,0
2018-05-16T00:36:13.854Z,0
2018-05-16T00:36:54.415Z,0
2018-05-16T00:37:35.011Z,0
2018-05-16T00:38:15.569Z,0
2018-05-16T00:38:56.163Z,0
2018-05-16T00:39:36.757Z,0
2018-05-16T00:40:17.368Z,0
2018-05-16T00:40:57.947Z,0
2018-05-16T00:41:38.514Z,0
2018-05-16T00:42:19.121Z,0
2018-05-16T00:42:59.692Z,0
2018-05-16T00:43:40.258Z,0
2018-05-16T00:44:20.820Z,0
2018-05-16T00:45:01.369Z,0
2018-05-16T00:45:41.938Z,0
2018-05-16T00:46:22.510Z,0
2018-05-16T00:47:03.085Z,0
2018-05-16T00:47:43.634Z,0
2018-05-16T00:48:24.221Z,0
2018-05-16T00:49:04.800Z,0
2018-05-16T00:49:45.362Z,0
2018-05-16T00:50:25.911Z,0
2018-05-16T00:51:06.483Z,0
2018-05-16T00:51:47.046Z,0
2018-05-16T00:52:27.615Z,0
2018-05-16T00:53:08.198Z,0
2018-05-16T00:53:48.759Z,0
2018-05-16T00:54:29.348Z,0
2018-05-16T00:55:09.918Z,0
2018-05-16T00:55:50.511Z,0
2018-05-16T00:56:31.049Z,0
2018-05-16T00:57:11.631Z,0
2018-05-16T00:57:52.196Z,0
2018-05-16T00:58:32.757Z,0
2018-05-16T00:59:13.344Z,0
2018-05-16T00:59:53.898Z,0
2018-05-16T01:00:34.453Z,0
2018-05-16T01:01:15.033Z,0
2018-05-16T01:01:55.596Z,0
2018-05-16T01:02:36.164Z,0
2018-05-16T01:03:16.725Z,0
2018-05-16T01:03:57.349Z,0
2018-05-16T01:04:37.920Z,0
2018-05-16T01:05:18.494Z,0
2018-05-16T01:05:59.048Z,0
2018-05-16T01:06:39.627Z,0
2018-05-16T01:07:20.192Z,0
2018-05-16T01:08:00.752Z,0
2018-05-16T01:08:41.342Z,0
2018-05-16T01:09:21.914Z,0
2018-05-16T01:10:02.495Z,0
2018-05-16T01:10:43.034Z,0
2018-05-16T01:11:23.621Z,0
2018-05-16T01:12:04.202Z,0
2018-05-16T01:12:44.821Z,0
2018-05-16T01:13:25.322Z,0
2018-05-16T01:14:05.898Z,0
2018-05-16T01:14:46.489Z,0
2018-05-16T01:15:27.078Z,0
2018-05-16T01:16:07.636Z,0
2018-05-16T01:16:48.193Z,0
2018-05-16T01:17:28.765Z,0
2018-05-16T01:18:09.332Z,0
2018-05-16T01:18:49.898Z,0
2018-05-16T01:19:30.464Z,0
2018-05-16T01:20:11.068Z,0
2018-05-16T01:20:51.631Z,0
2018-05-16T01:21:32.199Z,0
2018-05-16T01:22:12.762Z,0
2018-05-16T01:22:53.327Z,0
2018-05-16T01:23:33.903Z,0
2018-05-16T01:24:14.485Z,0
2018-05-16T01:24:55.126Z,0
2018-05-16T01:25:35.615Z,0
2018-05-16T01:26:16.193Z,0
2018-05-16T01:26:56.756Z,0
2018-05-16T01:27:37.318Z,0
2018-05-16T01:28:17.895Z,0
2018-05-16T01:28:58.484Z,0
2018-05-16T01:29:39.061Z,0
2018-05-16T01:30:19.632Z,0
2018-05-16T01:31:00.201Z,0
2018-05-16T01:31:40.768Z,0
2018-05-16T01:32:21.340Z,0
2018-05-16T01:33:01.902Z,0
2018-05-16T01:33:42.486Z,0
2018-05-16T01:34:23.058Z,0
2018-05-16T01:35:03.637Z,0
2018-05-16T01:35:44.202Z,0
2018-05-16T01:36:24.774Z,0
2018-05-16T01:37:05.357Z,0
2018-05-16T01:37:45.952Z,0
2018-05-16T01:38:26.535Z,0
2018-05-16T01:39:07.078Z,0
2018-05-16T01:39:47.664Z,0
2018-05-16T01:40:28.223Z,0
2018-05-16T01:41:08.775Z,0
2018-05-16T01:41:49.334Z,0
2018-05-16T01:42:29.899Z,0
2018-05-16T01:43:10.484Z,0
2018-05-16T01:43:51.063Z,0
2018-05-16T01:44:31.647Z,0
2018-05-16T01:45:12.207Z,0
2018-05-16T01:45:52.770Z,0
2018-05-16T01:46:33.319Z,0
2018-05-16T01:47:13.876Z,0
2018-05-16T01:47:54.436Z,0
2018-05-16T01:48:35.000Z,0
2018-05-16T01:49:15.561Z,0
2018-05-16T01:49:56.127Z,0
2018-05-16T01:50:36.726Z,0
2018-05-16T01:51:17.331Z,0
2018-05-16T01:51:57.891Z,0
2018-05-16T01:52:38.451Z,0
2018-05-16T01:53:19.017Z,0
2018-05-16T01:53:59.581Z,0
2018-05-16T01:54:40.133Z,0
2018-05-16T01:55:20.686Z,0
2018-05-16T01:56:01.247Z,0
2018-05-16T01:56:41.806Z,0
2018-05-16T01:57:22.395Z,0
2018-05-16T01:58:02.997Z,0
2018-05-16T01:58:43.559Z,0
2018-05-16T01:59:24.120Z,0
2018-05-16T02:00:04.708Z,0
2018-05-16T02:00:45.274Z,0
2018-05-16T02:01:25.838Z,0
2018-05-16T02:02:06.392Z,0
2018-05-16T02:02:46.986Z,0
2018-05-16T02:03:27.555Z,0
2018-05-16T02:04:08.114Z,0
2018-05-16T02:04:48.685Z,0
2018-05-16T02:05:29.263Z,0
2018-05-16T02:06:09.816Z,0
2018-05-16T02:06:50.389Z,0
2018-05-16T02:07:30.947Z,0
2018-05-16T02:08:11.531Z,0
2018-05-16T02:08:52.083Z,0
2018-05-16T02:09:32.625Z,0
2018-05-16T02:10:13.233Z,0
2018-05-16T02:10:53.794Z,0
2018-05-16T02:11:34.411Z,0
2018-05-16T02:12:14.983Z,0
2018-05-16T02:12:55.541Z,0
2018-05-16T02:13:36.121Z,0
2018-05-16T02:14:16.690Z,0
2018-05-16T02:14:57.263Z,0
2018-05-16T02:15:37.805Z,0
2018-05-16T02:16:18.362Z,0
2018-05-16T02:16:58.920Z,0
2018-05-16T02:17:39.451Z,0
2018-05-16T02:18:20.018Z,0
2018-05-16T02:19:00.598Z,0
2018-05-16T02:19:41.174Z,0
2018-05-16T02:20:21.736Z,0
2018-05-16T02:21:02.284Z,0
2018-05-16T02:21:42.827Z,0
2018-05-16T02:22:23.423Z,0
2018-05-16T02:23:04.038Z,0
2018-05-16T02:23:44.589Z,0
2018-05-16T02:24:25.157Z,0
2018-05-16T02:25:05.724Z,0
2018-05-16T02:25:46.282Z,0
2018-05-16T02:26:26.849Z,0
2018-05-16T02:27:07.442Z,0
2018-05-16T02:27:47.983Z,0
2018-05-16T02:28:28.543Z,0
2018-05-16T02:29:09.108Z,0
2018-05-16T02:29:49.768Z,0
2018-05-16T02:30:30.230Z,0
2018-05-16T02:31:10.782Z,0
2018-05-16T02:31:51.341Z,0
2018-05-16T02:32:31.884Z,0
2018-05-16T02:33:12.497Z,0
2018-05-16T02:33:53.078Z,0
2018-05-16T02:34:33.635Z,0
2018-05-16T02:35:14.188Z,0
2018-05-16T02:35:54.786Z,0
2018-05-16T02:36:35.357Z,0
2018-05-16T02:37:15.997Z,0
2018-05-16T02:37:56.518Z,4
2018-05-16T02:38:37.066Z,4
2018-05-16T02:39:17.646Z,4
2018-05-16T02:39:58.213Z,4
2018-05-16T02:40:38.791Z,0
2018-05-16T02:41:19.375Z,4
2018-05-16T02:41:59.921Z,4
2018-05-16T02:42:40.477Z,4
2018-05-16T02:43:21.077Z,4
2018-05-16T02:44:01.596Z,4
2018-05-16T02:44:42.156Z,8
2018-05-16T02:45:22.719Z,4
2018-05-16T02:46:03.277Z,8
2018-05-16T02:46:43.858Z,8
2018-05-16T02:47:24.482Z,8
2018-05-16T02:48:04.976Z,12
2018-05-16T02:48:45.533Z,8
2018-05-16T02:49:26.097Z,8
2018-05-16T02:50:06.651Z,8
2018-05-16T02:50:47.235Z,12
2018-05-16T02:51:27.805Z,12
2018-05-16T02:52:08.354Z,16
2018-05-16T02:52:48.916Z,16
2018-05-16T02:53:29.507Z,20
2018-05-16T02:54:10.063Z,20
2018-05-16T02:54:50.599Z,20
2018-05-16T02:55:31.160Z,24
2018-05-16T02:56:11.748Z,24
2018-05-16T02:56:52.319Z,24
2018-05-16T02:57:32.937Z,24
2018-05-16T02:58:13.492Z,28
2018-05-16T02:58:54.059Z,28
2018-05-16T02:59:34.632Z,32
2018-05-16T03:00:15.216Z,36
2018-05-16T03:00:55.791Z,40
2018-05-16T03:01:36.355Z,40
2018-05-16T03:02:16.943Z,44
2018-05-16T03:02:57.504Z,44
2018-05-16T03:03:38.092Z,48
2018-05-16T03:04:18.679Z,52
2018-05-16T03:04:59.247Z,56
2018-05-16T03:05:39.812Z,56
2018-05-16T03:06:20.393Z,64
2018-05-16T03:07:00.952Z,68
2018-05-16T03:07:41.518Z,72
2018-05-16T03:08:22.085Z,72
2018-05-16T03:09:02.656Z,76
2018-05-16T03:09:43.245Z,80
2018-05-16T03:10:23.804Z,84
2018-05-16T03:11:04.393Z,88
2018-05-16T03:11:44.944Z,92
2018-05-16T03:12:25.497Z,96
2018-05-16T03:13:06.058Z,100
2018-05-16T03:13:46.639Z,104
2018-05-16T03:14:27.199Z,112
2018-05-16T03:15:07.751Z,116
2018-05-16T03:15:48.350Z,120
2018-05-16T03:16:28.938Z,124
2018-05-16T03:17:09.489Z,128
2018-05-16T03:17:50.042Z,132
2018-05-16T03:18:30.641Z,140
2018-05-16T03:19:11.206Z,144
2018-05-16T03:19:51.781Z,156
2018-05-16T03:20:32.347Z,164
2018-05-16T03:21:12.870Z,164
2018-05-16T03:21:53.468Z,160
2018-05-16T03:22:34.016Z,188
2018-05-16T03:23:14.594Z,208
2018-05-16T03:23:55.145Z,224
2018-05-16T03:24:35.728Z,244
2018-05-16T03:25:16.310Z,256
2018-05-16T03:25:56.864Z,272
2018-05-16T03:26:37.450Z,284
2018-05-16T03:27:18.097Z,300
2018-05-16T03:27:58.649Z,308
2018-05-16T03:28:39.207Z,320
2018-05-16T03:29:19.808Z,336
2018-05-16T03:30:00.376Z,344
2018-05-16T03:30:40.951Z,368
2018-05-16T03:31:21.538Z,388
2018-05-16T03:32:03.606Z,400
2018-05-16T03:32:44.158Z,420
2018-05-16T03:33:24.754Z,444
2018-05-16T03:34:05.312Z,464
2018-05-16T03:34:45.886Z,480
2018-05-16T03:35:26.464Z,480
2018-05-16T03:36:07.003Z,496
2018-05-16T03:36:47.550Z,504
2018-05-16T03:37:28.112Z,520
2018-05-16T03:38:08.677Z,520
2018-05-16T03:38:49.243Z,540
2018-05-16T03:39:29.795Z,544
2018-05-16T03:40:10.358Z,536
2018-05-16T03:40:50.937Z,516
2018-05-16T03:41:31.477Z,520
2018-05-16T03:42:12.045Z,532
2018-05-16T03:42:52.613Z,532
2018-05-16T03:43:33.186Z,584
2018-05-16T03:44:13.815Z,616
2018-05-16T03:44:54.473Z,652
2018-05-16T03:45:35.048Z,680
2018-05-16T03:46:15.615Z,676
2018-05-16T03:46:56.196Z,716
2018-05-16T03:47:36.753Z,752
2018-05-16T03:48:17.312Z,772
2018-05-16T03:48:57.896Z,792
2018-05-16T03:49:38.462Z,808
2018-05-16T03:50:19.022Z,828
2018-05-16T03:50:59.585Z,836
2018-05-16T03:51:40.139Z,844
2018-05-16T03:52:20.703Z,876
2018-05-16T03:53:01.275Z,916
2018-05-16T03:53:41.832Z,944
2018-05-16T03:54:22.375Z,984
2018-05-16T03:55:02.978Z,1028
2018-05-16T03:55:43.551Z,1068
2018-05-16T03:56:24.109Z,1100
2018-05-16T03:57:04.669Z,1104
2018-05-16T03:57:45.226Z,1192
2018-05-16T03:58:25.791Z,1224
2018-05-16T03:59:06.358Z,1224
2018-05-16T03:59:46.927Z,1220
2018-05-16T04:00:27.466Z,1236
2018-05-16T04:01:08.012Z,1240
2018-05-16T04:01:48.586Z,1224
2018-05-16T04:02:29.158Z,1196
2018-05-16T04:03:09.736Z,1180
2018-05-16T04:03:50.338Z,1164
2018-05-16T04:04:30.856Z,1140
2018-05-16T04:05:11.445Z,1140
2018-05-16T04:05:52.018Z,1120
2018-05-16T04:06:32.598Z,1092
2018-05-16T04:07:13.174Z,1160
2018-05-16T04:07:53.756Z,1188
2018-05-16T04:08:34.326Z,1196
2018-05-16T04:09:14.884Z,1256
2018-05-16T04:09:55.447Z,1316
2018-05-16T04:10:36.023Z,1356
2018-05-16T04:11:16.551Z,1396
2018-05-16T04:11:57.133Z,1492
2018-05-16T04:12:37.686Z,1440
2018-05-16T04:13:18.254Z,1492
2018-05-16T04:13:58.833Z,1316
2018-05-16T04:14:39.399Z,1476
2018-05-16T04:15:19.965Z,1528
2018-05-16T04:16:00.579Z,1512
2018-05-16T04:16:41.155Z,1624
2018-05-16T04:17:21.717Z,1728
2018-05-16T04:18:02.302Z,1780
2018-05-16T04:18:42.870Z,1788
2018-05-16T04:19:23.433Z,1772
2018-05-16T04:20:03.999Z,1704
2018-05-16T04:20:44.546Z,1764
2018-05-16T04:21:25.102Z,1756
2018-05-16T04:22:05.648Z,1840
2018-05-16T04:22:46.208Z,1860
2018-05-16T04:23:26.765Z,1912
2018-05-16T04:24:07.324Z,2000
2018-05-16T04:24:47.888Z,2048
2018-05-16T04:25:28.478Z,2096
2018-05-16T04:26:09.044Z,2092
2018-05-16T04:26:49.608Z,2084
2018-05-16T04:27:30.162Z,2020
2018-05-16T04:28:10.732Z,2000
2018-05-16T04:28:51.394Z,1928
2018-05-16T04:29:31.861Z,1864
2018-05-16T04:30:12.429Z,1652
2018-05-16T04:30:53.010Z,1796
2018-05-16T04:31:33.558Z,1712
2018-05-16T04:32:14.121Z,1792
2018-05-16T04:32:54.667Z,1856
2018-05-16T04:33:35.271Z,1900
2018-05-16T04:34:15.978Z,1988
2018-05-16T04:34:56.528Z,2032
2018-05-16T04:35:37.169Z,2036
2018-05-16T04:36:17.858Z,2116
2018-05-16T04:36:58.355Z,2108
2018-05-16T04:37:39.038Z,2104
2018-05-16T04:38:19.591Z,2060
2018-05-16T04:39:00.159Z,2040
2018-05-16T04:39:40.825Z,2004
2018-05-16T04:40:21.602Z,1976
2018-05-16T04:41:02.345Z,1984
2018-05-16T04:41:42.964Z,2064
2018-05-16T04:42:23.564Z,2132
2018-05-16T04:43:04.130Z,2200
2018-05-16T04:43:44.724Z,2260
2018-05-16T04:44:25.326Z,2228
2018-05-16T04:45:05.946Z,2176
2018-05-16T04:45:46.454Z,2196
2018-05-16T04:46:27.011Z,2220
2018-05-16T04:47:07.574Z,2272
2018-05-16T04:47:48.149Z,2340
2018-05-16T04:48:28.718Z,2444
2018-05-16T04:49:09.295Z,2544
2018-05-16T04:49:49.858Z,2680
2018-05-16T04:50:30.441Z,2740
2018-05-16T04:51:10.985Z,2844
2018-05-16T04:51:51.553Z,2944
2018-05-16T04:52:32.110Z,3000
2018-05-16T04:53:12.671Z,2924
2018-05-16T04:53:53.224Z,2908
2018-05-16T04:54:33.792Z,2880
2018-05-16T04:55:14.362Z,2772
2018-05-16T04:55:54.940Z,2560
2018-05-16T04:56:35.508Z,2384
2018-05-16T04:57:16.055Z,2280
2018-05-16T04:57:56.626Z,2208
2018-05-16T04:58:37.180Z,2112
2018-05-16T04:59:18.611Z,2044
2018-05-16T04:59:59.156Z,1992
2018-05-16T05:00:39.729Z,1956
2018-05-16T05:01:20.281Z,1932
2018-05-16T05:02:00.866Z,1896
2018-05-16T05:02:41.421Z,1852
2018-05-16T05:03:21.984Z,1796
2018-05-16T05:04:02.553Z,1728
2018-05-16T05:04:44.046Z,1668
2018-05-16T05:05:24.739Z,1640
2018-05-16T05:06:05.282Z,1652
2018-05-16T05:06:45.840Z,1668
2018-05-16T05:07:26.576Z,1732
2018-05-16T05:08:07.157Z,1780
2018-05-16T05:08:47.706Z,1848
2018-05-16T05:09:28.259Z,1972
2018-05-16T05:10:08.833Z,2096
2018-05-16T05:10:49.398Z,2220
2018-05-16T05:11:29.962Z,2256
2018-05-16T05:12:10.529Z,2328
2018-05-16T05:12:51.080Z,2548
2018-05-16T05:13:31.644Z,2704
2018-05-16T05:14:12.230Z,2964
2018-05-16T05:14:52.807Z,3360
2018-05-16T05:15:33.411Z,3760
2018-05-16T05:16:13.957Z,4708
2018-05-16T05:16:54.523Z,5120
2018-05-16T05:17:35.097Z,4400
2018-05-16T05:18:15.755Z,3932
2018-05-16T05:18:56.237Z,3944
2018-05-16T05:19:36.813Z,5560
2018-05-16T05:20:17.382Z,6580
2018-05-16T05:20:57.968Z,6768
2018-05-16T05:21:38.523Z,7076
2018-05-16T05:22:19.144Z,7176
2018-05-16T05:22:59.742Z,7040
2018-05-16T05:23:40.310Z,6624
2018-05-16T05:24:20.864Z,6316
2018-05-16T05:25:01.423Z,6100
2018-05-16T05:25:42.001Z,6000
2018-05-16T05:26:22.703Z,6032
2018-05-16T05:27:03.262Z,6620
2018-05-16T05:27:43.802Z,6896
2018-05-16T05:28:24.384Z,6972
2018-05-16T05:29:04.978Z,7260
2018-05-16T05:29:45.528Z,6724
2018-05-16T05:30:26.181Z,6900
2018-05-16T05:31:06.661Z,7208
2018-05-16T05:31:47.363Z,7504
2018-05-16T05:32:27.927Z,7684
2018-05-16T05:33:08.486Z,7912
2018-05-16T05:33:49.315Z,8264
2018-05-16T05:34:30.134Z,9200
2018-05-16T05:35:10.719Z,11584
2018-05-16T05:35:51.298Z,13200
2018-05-16T05:36:31.930Z,11148
2018-05-16T05:37:12.604Z,24544
2018-05-16T05:37:53.181Z,57504
2018-05-16T05:38:33.748Z,55936
2018-05-16T05:39:14.320Z,26112
2018-05-16T05:39:54.897Z,20864
2018-05-16T05:40:35.480Z,14304
2018-05-16T05:41:16.035Z,11312
2018-05-16T05:41:56.625Z,10288
2018-05-16T05:42:37.227Z,9744
2018-05-16T05:43:17.827Z,9204
2018-05-16T05:43:58.373Z,9828
2018-05-16T05:44:38.940Z,11428
2018-05-16T05:45:19.525Z,12316
2018-05-16T05:46:00.110Z,10312
2018-05-16T05:46:40.685Z,10452
2018-05-16T05:47:21.287Z,10408
2018-05-16T05:48:01.873Z,10872
2018-05-16T05:48:42.444Z,12804
2018-05-16T05:49:23.006Z,13952
2018-05-16T05:50:03.640Z,22432
2018-05-16T05:50:44.215Z,13372
2018-05-16T05:51:24.767Z,13112
2018-05-16T05:52:05.331Z,13340
2018-05-16T05:52:45.898Z,16608
2018-05-16T05:53:26.456Z,28160
2018-05-16T05:54:07.006Z,25376
2018-05-16T05:54:47.594Z,44928
2018-05-16T05:55:28.191Z,13400
2018-05-16T05:56:08.864Z,12352
2018-05-16T05:56:49.361Z,12736
2018-05-16T05:57:29.884Z,12756
2018-05-16T05:58:10.478Z,13980
2018-05-16T05:58:51.001Z,14356
2018-05-16T05:59:31.689Z,19648
2018-05-16T06:00:12.468Z,21696
2018-05-16T06:00:52.884Z,40768
2018-05-16T06:01:33.502Z,20448
2018-05-16T06:02:14.083Z,54752
2018-05-16T06:02:54.667Z,63552
2018-05-16T06:03:35.229Z,63104
2018-05-16T06:04:15.786Z,52192
2018-05-16T06:04:56.366Z,66304
2018-05-16T06:05:36.903Z,59520
2018-05-16T06:06:17.572Z,70272
2018-05-16T06:06:58.182Z,72640
2018-05-16T06:07:38.747Z,66272
2018-05-16T06:08:19.314Z,40288
2018-05-16T06:08:59.922Z,36576
2018-05-16T06:09:40.509Z,42336
2018-05-16T06:10:21.091Z,25056
2018-05-16T06:11:01.615Z,37312
2018-05-16T06:11:42.209Z,60352
2018-05-16T06:12:23.294Z,45216
2018-05-16T06:13:03.715Z,45856
2018-05-16T06:13:44.305Z,29856
2018-05-16T06:14:24.882Z,34496
2018-05-16T06:15:05.496Z,28064
2018-05-16T06:15:46.066Z,24608
2018-05-16T06:16:26.622Z,28544
2018-05-16T06:17:07.241Z,19840
2018-05-16T06:17:47.821Z,27232
2018-05-16T06:18:28.393Z,50432
2018-05-16T06:19:09.008Z,63424
2018-05-16T06:19:49.582Z,61952
2018-05-16T06:20:30.116Z,69504
2018-05-16T06:21:10.701Z,65440
2018-05-16T06:21:51.250Z,72192
2018-05-16T06:22:31.817Z,58560
2018-05-16T06:23:12.383Z,58688
2018-05-16T06:23:52.972Z,71808
2018-05-16T06:24:33.550Z,63520
2018-05-16T06:25:14.111Z,42688
2018-05-16T06:25:54.678Z,67232
2018-05-16T06:26:35.260Z,47360
2018-05-16T06:27:15.983Z,53696
2018-05-16T06:27:56.504Z,24320
2018-05-16T06:28:37.254Z,13196
2018-05-16T06:29:17.923Z,9880
2018-05-16T06:29:58.478Z,8984
2018-05-16T06:30:39.037Z,7540
2018-05-16T06:31:19.612Z,6372
2018-05-16T06:32:00.165Z,5596
2018-05-16T06:32:40.756Z,4968
2018-05-16T06:33:21.317Z,4552
2018-05-16T06:34:01.887Z,4300
2018-05-16T06:34:42.449Z,4028
2018-05-16T06:35:23.009Z,3620
2018-05-16T06:36:03.569Z,3360
2018-05-16T06:36:44.154Z,3256
2018-05-16T06:37:24.720Z,3356
2018-05-16T06:38:05.324Z,3632
2018-05-16T06:38:45.904Z,4076
2018-05-16T06:39:26.535Z,4568
2018-05-16T06:40:07.125Z,4892
2018-05-16T06:40:47.676Z,5340
2018-05-16T06:41:28.258Z,5580
2018-05-16T06:42:08.800Z,5568
2018-05-16T06:42:49.368Z,5448
2018-05-16T06:43:29.910Z,5216
2018-05-16T06:44:10.495Z,4892
2018-05-16T06:44:51.076Z,4588
2018-05-16T06:45:31.642Z,4360
2018-05-16T06:46:12.199Z,4148
2018-05-16T06:46:52.775Z,4056
2018-05-16T06:47:33.340Z,4040
2018-05-16T06:48:13.936Z,4088
2018-05-16T06:48:54.526Z,4236
2018-05-16T06:49:35.113Z,4468
2018-05-16T06:50:15.694Z,4692
2018-05-16T06:50:56.255Z,4872
2018-05-16T06:51:36.827Z,5016
2018-05-16T06:52:17.405Z,5216
2018-05-16T06:52:57.958Z,5480
2018-05-16T06:53:38.544Z,5772
2018-05-16T06:54:19.133Z,6156
2018-05-16T06:54:59.687Z,6568
2018-05-16T06:55:40.239Z,6940
2018-05-16T06:56:20.835Z,7452
2018-05-16T06:57:01.368Z,8132
2018-05-16T06:57:41.953Z,9148
2018-05-16T06:58:22.520Z,11092
2018-05-16T06:59:03.091Z,17824
2018-05-16T06:59:43.665Z,17856
2018-05-16T07:00:24.253Z,20096
2018-05-16T07:01:04.817Z,26432
2018-05-16T07:01:45.395Z,19936
2018-05-16T07:02:25.963Z,18720
2018-05-16T07:03:06.529Z,17056
2018-05-16T07:03:47.101Z,17248
2018-05-16T07:04:27.673Z,19424
2018-05-16T07:05:08.243Z,15904
2018-05-16T07:05:48.813Z,16448
2018-05-16T07:06:29.380Z,18848
2018-05-16T07:07:09.978Z,23072
2018-05-16T07:07:50.530Z,36032
2018-05-16T07:08:31.092Z,55520
2018-05-16T07:09:11.666Z,32608
2018-05-16T07:09:52.248Z,33632
2018-05-16T07:10:32.801Z,29408
2018-05-16T07:11:13.418Z,26720
2018-05-16T07:11:53.979Z,27072
2018-05-16T07:12:34.552Z,21632
2018-05-16T07:13:15.132Z,32864
2018-05-16T07:13:55.708Z,47584
2018-05-16T07:14:36.274Z,66432
2018-05-16T07:15:16.828Z,86048
2018-05-16T07:15:57.408Z,31712
2018-05-16T07:16:37.948Z,28480
2018-05-16T07:17:18.511Z,76768
2018-05-16T07:17:59.079Z,64736
2018-05-16T07:18:39.656Z,54976
2018-05-16T07:19:20.214Z,36448
2018-05-16T07:20:00.771Z,29184
2018-05-16T07:20:41.333Z,49600
2018-05-16T07:21:21.895Z,25632
2018-05-16T07:22:02.476Z,18208
2018-05-16T07:22:43.034Z,25248
2018-05-16T07:23:23.614Z,33120
2018-05-16T07:24:04.189Z,31808
2018-05-16T07:24:44.739Z,27808
2018-05-16T07:25:25.293Z,46720
2018-05-16T07:26:05.867Z,25120
2018-05-16T07:26:46.422Z,28960
2018-05-16T07:27:27.001Z,20960
2018-05-16T07:28:07.573Z,26688
2018-05-16T07:28:48.144Z,70560
2018-05-16T07:29:28.705Z,27776
2018-05-16T07:30:09.285Z,29216
2018-05-16T07:30:49.876Z,19104
2018-05-16T07:31:30.439Z,17504
2018-05-16T07:32:11.033Z,21856
2018-05-16T07:32:51.608Z,20960
2018-05-16T07:33:32.205Z,30496
2018-05-16T07:34:12.807Z,22400
2018-05-16T07:34:53.379Z,19904
2018-05-16T07:35:33.929Z,24064
2018-05-16T07:36:14.498Z,22240
2018-05-16T07:36:55.066Z,22656
2018-05-16T07:37:35.618Z,27584
2018-05-16T07:38:16.180Z,21760
2018-05-16T07:38:56.749Z,23136
2018-05-16T07:39:37.314Z,33312
2018-05-16T07:40:17.882Z,41344
2018-05-16T07:40:58.459Z,33568
2018-05-16T07:41:39.030Z,77504
2018-05-16T07:42:19.613Z,72640
2018-05-16T07:43:00.186Z,78048
2018-05-16T07:43:40.734Z,71744
2018-05-16T07:44:21.318Z,81664
2018-05-16T07:45:01.881Z,82752
2018-05-16T07:45:42.468Z,82464
2018-05-16T07:46:23.021Z,79872
2018-05-16T07:47:03.603Z,76288
2018-05-16T07:47:44.157Z,81152
2018-05-16T07:48:24.729Z,72192
2018-05-16T07:49:05.293Z,39136
2018-05-16T07:49:45.877Z,46400
2018-05-16T07:50:26.450Z,42688
2018-05-16T07:51:07.078Z,20416
2018-05-16T07:51:47.608Z,23424
2018-05-16T07:52:28.179Z,53184
2018-05-16T07:53:08.743Z,59552
2018-05-16T07:53:49.321Z,78720
2018-05-16T07:54:29.891Z,77440
2018-05-16T07:55:10.467Z,75520
2018-05-16T07:55:51.091Z,81696
2018-05-16T07:56:31.621Z,35648
2018-05-16T07:57:12.196Z,20384
2018-05-16T07:57:52.773Z,16320
2018-05-16T07:58:33.362Z,20864
2018-05-16T07:59:13.943Z,13384
2018-05-16T07:59:54.507Z,13560
2018-05-16T08:00:35.090Z,13888
2018-05-16T08:01:15.682Z,12548
2018-05-16T08:01:56.250Z,13396
2018-05-16T08:02:36.845Z,14616
2018-05-16T08:03:17.500Z,14904
2018-05-16T08:03:57.977Z,15484
2018-05-16T08:04:38.577Z,16448
2018-05-16T08:05:19.152Z,14748
2018-05-16T08:05:59.727Z,14740
2018-05-16T08:06:40.383Z,16128
2018-05-16T08:07:20.907Z,13624
2018-05-16T08:08:01.464Z,13964
2018-05-16T08:08:42.049Z,14724
2018-05-16T08:09:22.607Z,14576
2018-05-16T08:10:03.210Z,18016
2018-05-16T08:10:43.771Z,11768
2018-05-16T08:11:24.345Z,11100
2018-05-16T08:12:04.920Z,9856
2018-05-16T08:12:45.485Z,9276
2018-05-16T08:13:26.044Z,8916
2018-05-16T08:14:06.649Z,7888
2018-05-16T08:14:47.228Z,7984
2018-05-16T08:15:27.806Z,6752
2018-05-16T08:16:08.376Z,6232
2018-05-16T08:16:48.958Z,5964
2018-05-16T08:17:29.542Z,5748
2018-05-16T08:18:10.097Z,5636
2018-05-16T08:18:50.689Z,5580
2018-05-16T08:19:31.253Z,5532
2018-05-16T08:20:11.808Z,5496
2018-05-16T08:20:52.366Z,5536
2018-05-16T08:21:32.914Z,5648
2018-05-16T08:22:13.488Z,5944
2018-05-16T08:22:54.074Z,5908
2018-05-16T08:23:34.628Z,6072
2018-05-16T08:24:15.210Z,6372
2018-05-16T08:24:55.783Z,6708
2018-05-16T08:25:36.346Z,7088
2018-05-16T08:26:16.911Z,7536
2018-05-16T08:26:57.472Z,8044
2018-05-16T08:27:38.064Z,8600
2018-05-16T08:28:18.622Z,9016
2018-05-16T08:28:59.194Z,9540
2018-05-16T08:29:39.765Z,9652
2018-05-16T08:30:20.328Z,9644
2018-05-16T08:31:00.918Z,9864
2018-05-16T08:31:41.478Z,9540
2018-05-16T08:32:22.043Z,9416
2018-05-16T08:33:02.623Z,9472
2018-05-16T08:33:43.218Z,9812
2018-05-16T08:34:23.778Z,10192
2018-05-16T08:35:04.335Z,10288
2018-05-16T08:35:44.903Z,10348
2018-05-16T08:36:25.477Z,10992
2018-05-16T08:37:06.045Z,10436
2018-05-16T08:37:46.595Z,10368
2018-05-16T08:38:27.170Z,10264
2018-05-16T08:39:07.748Z,10504
2018-05-16T08:39:48.353Z,10512
2018-05-16T08:40:28.907Z,10788
2018-05-16T08:41:09.466Z,11296
2018-05-16T08:41:50.042Z,11792
2018-05-16T08:42:30.609Z,11852
2018-05-16T08:43:11.188Z,12496
2018-05-16T08:43:51.757Z,12548
2018-05-16T08:44:32.324Z,14076
2018-05-16T08:45:12.903Z,13076
2018-05-16T08:45:53.469Z,14328
2018-05-16T08:46:34.056Z,13140
2018-05-16T08:47:14.601Z,12884
2018-05-16T08:47:55.172Z,13040
2018-05-16T08:48:35.753Z,12800
2018-05-16T08:49:16.323Z,12908
2018-05-16T08:49:56.896Z,12768
2018-05-16T08:50:37.467Z,12784
2018-05-16T08:51:18.034Z,14036
2018-05-16T08:51:58.606Z,13104
2018-05-16T08:52:39.186Z,13564
2018-05-16T08:53:19.763Z,12356
2018-05-16T08:54:00.322Z,12896
2018-05-16T08:54:40.871Z,12344
2018-05-16T08:55:21.463Z,11720
2018-05-16T08:56:02.036Z,11016
2018-05-16T08:56:42.603Z,10680
2018-05-16T08:57:23.166Z,10636
2018-05-16T08:58:03.732Z,10324
2018-05-16T08:58:44.295Z,10608
2018-05-16T08:59:24.888Z,10400
2018-05-16T09:00:05.454Z,10128
2018-05-16T09:00:46.020Z,10040
2018-05-16T09:01:26.569Z,9808
2018-05-16T09:02:07.130Z,9788
2018-05-16T09:02:47.674Z,9752
2018-05-16T09:03:28.238Z,9396
2018-05-16T09:04:08.797Z,9172
2018-05-16T09:04:49.371Z,8920
2018-05-16T09:05:30.017Z,8932
2018-05-16T09:06:10.654Z,8476
2018-05-16T09:06:51.248Z,8436
2018-05-16T09:07:31.829Z,8744
2018-05-16T09:08:12.420Z,8268
2018-05-16T09:08:52.990Z,8084
2018-05-16T09:09:33.580Z,8092
2018-05-16T09:10:14.127Z,7992
2018-05-16T09:10:54.707Z,7948
2018-05-16T09:11:35.273Z,7988
2018-05-16T09:12:15.878Z,7956
2018-05-16T09:12:56.459Z,7976
2018-05-16T09:13:37.027Z,7872
2018-05-16T09:14:17.597Z,7696
2018-05-16T09:14:58.158Z,7608